Time;durP1;ratioP1;P1;durP2;ratioP2;P2;SDS_P1;SDS_P2;PMS_P1;PMS_P2;Temp;Humidity;BMP_temperature;BMP_pressure;BME280_temperature;BME280_humidity;BME280_pressure;Samples;Min_cycle;Max_cycle;Signal;HPM_P1;HPM_P2
2022/05/11 00:01:46;;;;;;;0.30;0.30;;;16.50;64.40;;;;;;5113718;28;20040;-73
2022/05/11 00:04:12;;;;;;;0.22;0.22;;;16.50;64.50;;;;;;5095118;28;20035;-72
2022/05/11 00:06:38;;;;;;;0.40;0.20;;;16.50;64.60;;;;;;5095100;28;20331;-73
2022/05/11 00:09:06;;;;;;;0.20;0.20;;;16.50;64.70;;;;;;5095013;28;20047;-72
2022/05/11 00:11:33;;;;;;;0.10;0.10;;;16.50;64.70;;;;;;5113398;28;20067;-72
2022/05/11 00:13:58;;;;;;;0.40;0.40;;;16.50;64.80;;;;;;5095069;28;20065;-72
2022/05/11 00:16:26;;;;;;;0.47;0.30;;;16.50;64.90;;;;;;5113065;28;20519;-72
2022/05/11 00:18:52;;;;;;;0.20;0.20;;;16.50;65.00;;;;;;5095567;28;20043;-73
2022/05/11 00:21:17;;;;;;;0.22;0.22;;;16.50;65.10;;;;;;5095404;28;20043;-72
2022/05/11 00:23:44;;;;;;;0.52;0.40;;;16.40;65.10;;;;;;5113320;28;20481;-72
2022/05/11 00:26:09;;;;;;;0.25;0.25;;;16.40;65.10;;;;;;5113499;28;20377;-72
2022/05/11 00:28:36;;;;;;;0.20;0.20;;;16.40;65.20;;;;;;5113309;28;20028;-72
2022/05/11 00:31:02;;;;;;;0.65;0.30;;;16.40;65.30;;;;;;5113161;28;20031;-72
2022/05/11 00:33:28;;;;;;;0.40;0.30;;;16.40;65.40;;;;;;5113105;28;20035;-72
2022/05/11 00:35:54;;;;;;;0.38;0.30;;;16.30;65.40;;;;;;5113124;28;20046;-72
2022/05/11 00:38:24;;;;;;;0.63;0.40;;;16.40;65.50;;;;;;5113496;28;20124;-72
2022/05/11 00:40:54;;;;;;;0.50;0.50;;;16.40;65.50;;;;;;5111646;28;20047;-73
2022/05/11 00:43:31;;;;;;;0.45;0.45;;;16.40;65.50;;;;;;5093061;28;20080;-73
2022/05/11 00:46:11;;;;;;;0.40;0.40;;;16.30;65.50;;;;;;5111556;28;20040;-72
2022/05/11 00:51:19;;;;;;;0.32;0.30;;;16.30;65.30;;;;;;5112771;28;20048;-72
2022/05/11 00:53:51;;;;;;;0.30;0.30;;;16.40;65.40;;;;;;5113167;28;20089;-72
2022/05/11 00:56:16;;;;;;;0.30;0.30;;;16.40;65.30;;;;;;5113088;28;20086;-72
2022/05/11 00:58:48;;;;;;;0.40;0.40;;;16.40;65.30;;;;;;5113026;28;20039;-72
2022/05/11 01:01:14;;;;;;;0.50;0.50;;;16.30;65.30;;;;;;5112783;28;20890;-72
2022/05/11 01:03:58;;;;;;;1.10;0.40;;;16.30;65.40;;;;;;5112595;28;20039;-73
2022/05/11 01:06:24;;;;;;;0.40;0.40;;;16.30;65.50;;;;;;5092952;28;20044;-73
2022/05/11 01:08:50;;;;;;;0.60;0.60;;;16.30;65.40;;;;;;5094302;28;20691;-72
2022/05/11 01:11:16;;;;;;;0.43;0.43;;;16.20;65.40;;;;;;5112471;28;20092;-73
2022/05/11 01:13:43;;;;;;;0.50;0.50;;;16.30;65.40;;;;;;5112884;28;20097;-72
2022/05/11 01:16:09;;;;;;;0.40;0.40;;;16.30;65.50;;;;;;5112343;28;20085;-72
2022/05/11 01:18:38;;;;;;;0.43;0.43;;;16.20;65.40;;;;;;5112697;28;20036;-73
2022/05/11 01:21:07;;;;;;;0.50;0.50;;;16.20;65.50;;;;;;5093897;28;20097;-72
2022/05/11 01:23:44;;;;;;;0.63;0.50;;;16.20;65.50;;;;;;5112136;28;20070;-73
2022/05/11 01:26:10;;;;;;;0.63;0.63;;;16.20;65.50;;;;;;5110779;28;20031;-72
2022/05/11 01:28:46;;;;;;;0.40;0.32;;;16.30;65.50;;;;;;5112003;28;20057;-72
2022/05/11 01:31:14;;;;;;;0.52;0.50;;;16.20;65.50;;;;;;5110875;28;20047;-72
2022/05/11 01:33:45;;;;;;;0.65;0.50;;;16.30;65.60;;;;;;5112212;28;20526;-73
2022/05/11 01:36:30;;;;;;;0.57;0.57;;;16.20;65.50;;;;;;5112086;28;20043;-72
2022/05/11 01:39:00;;;;;;;0.73;0.50;;;16.20;65.60;;;;;;5092042;28;20790;-72
2022/05/11 01:41:40;;;;;;;0.50;0.50;;;16.20;65.60;;;;;;5110440;28;20130;-72
2022/05/11 01:44:09;;;;;;;0.40;0.40;;;16.20;65.60;;;;;;5112316;28;20097;-73
2022/05/11 01:46:36;;;;;;;0.68;0.60;;;16.20;65.60;;;;;;5112536;28;20085;-72
2022/05/11 01:49:03;;;;;;;0.50;0.50;;;16.20;65.70;;;;;;5112174;28;20074;-72
2022/05/11 01:51:29;;;;;;;0.38;0.38;;;16.10;65.60;;;;;;5093693;28;20043;-72
2022/05/11 01:53:55;;;;;;;0.43;0.43;;;16.20;65.80;;;;;;5111992;28;20132;-72
2022/05/11 01:56:23;;;;;;;0.55;0.55;;;16.10;65.70;;;;;;5111938;28;20409;-72
2022/05/11 01:58:50;;;;;;;0.50;0.50;;;16.10;65.70;;;;;;5115027;28;20036;-72
2022/05/11 02:01:19;;;;;;;0.65;0.65;;;16.10;65.70;;;;;;5115420;28;20055;-72
2022/05/11 02:03:46;;;;;;;1.67;0.50;;;16.20;65.80;;;;;;5097668;28;20137;-72
2022/05/11 02:08:53;;;;;;;0.50;0.50;;;16.10;65.70;;;;;;5115247;28;20493;-72
2022/05/11 02:11:19;;;;;;;0.75;0.43;;;16.10;65.80;;;;;;5115252;28;20116;-72
2022/05/11 02:13:45;;;;;;;0.60;0.60;;;16.20;65.80;;;;;;5115284;28;20032;-72
2022/05/11 02:16:12;;;;;;;1.08;0.57;;;16.10;65.80;;;;;;5115580;28;20381;-72
2022/05/11 02:18:38;;;;;;;0.80;0.60;;;16.10;65.80;;;;;;5097197;28;20088;-73
2022/05/11 02:21:07;;;;;;;0.50;0.50;;;16.00;65.70;;;;;;5115509;28;20444;-72
2022/05/11 02:23:34;;;;;;;0.93;0.60;;;16.10;65.90;;;;;;5080103;28;20043;-73
2022/05/11 02:26:00;;;;;;;1.63;0.52;;;16.00;65.80;;;;;;5115227;28;20042;-73
2022/05/11 02:28:26;;;;;;;0.45;0.45;;;16.10;65.90;;;;;;5114857;28;20039;-73
2022/05/11 02:30:54;;;;;;;0.40;0.40;;;16.10;65.90;;;;;;5115243;28;20395;-72
2022/05/11 02:33:21;;;;;;;0.73;0.63;;;16.10;66.00;;;;;;5096591;28;20063;-72
2022/05/11 02:35:49;;;;;;;0.50;0.40;;;16.10;66.00;;;;;;5114948;28;20044;-72
2022/05/11 02:38:22;;;;;;;0.82;0.52;;;16.10;66.00;;;;;;5113652;28;20153;-72
2022/05/11 02:40:49;;;;;;;0.40;0.40;;;16.10;66.10;;;;;;5113279;28;20113;-72
2022/05/11 02:43:15;;;;;;;0.57;0.55;;;16.10;66.10;;;;;;5114860;28;20464;-72
2022/05/11 02:45:42;;;;;;;0.40;0.40;;;16.00;66.10;;;;;;5096597;28;20036;-72
2022/05/11 02:48:10;;;;;;;0.32;0.32;;;16.00;66.20;;;;;;5114646;28;20498;-72
2022/05/11 02:50:41;;;;;;;0.28;0.28;;;16.00;66.30;;;;;;5114628;28;20035;-72
2022/05/11 02:53:08;;;;;;;0.40;0.22;;;16.00;66.30;;;;;;5097032;28;20451;-72
2022/05/11 02:55:44;;;;;;;0.77;0.40;;;16.00;66.40;;;;;;5114743;28;20040;-72
2022/05/11 02:58:12;;;;;;;0.40;0.40;;;15.90;66.40;;;;;;5113779;28;20050;-72
2022/05/11 03:00:40;;;;;;;0.40;0.40;;;15.90;66.50;;;;;;5115045;28;20048;-72
2022/05/11 03:03:07;;;;;;;0.40;0.40;;;15.90;66.60;;;;;;5114380;28;20516;-72
2022/05/11 03:05:34;;;;;;;0.50;0.50;;;15.90;66.70;;;;;;5112342;28;20074;-72
2022/05/11 03:08:00;;;;;;;0.47;0.47;;;15.80;66.70;;;;;;5114433;28;20497;-72
2022/05/11 03:10:26;;;;;;;0.65;0.57;;;15.80;66.70;;;;;;5095847;28;20040;-73
2022/05/11 03:12:52;;;;;;;0.60;0.52;;;15.90;66.90;;;;;;5114443;28;20043;-72
2022/05/11 03:15:19;;;;;;;0.63;0.50;;;15.90;66.90;;;;;;5114667;28;20040;-72
2022/05/11 03:17:44;;;;;;;0.38;0.38;;;15.80;66.80;;;;;;5096146;28;20048;-72
2022/05/11 03:20:11;;;;;;;1.48;0.70;;;15.80;66.90;;;;;;5114156;28;20090;-73
2022/05/11 03:22:37;;;;;;;0.40;0.40;;;15.90;67.00;;;;;;5096020;28;20068;-72
2022/05/11 03:25:04;;;;;;;0.50;0.50;;;15.80;67.00;;;;;;5114133;28;20048;-72
2022/05/11 03:27:30;;;;;;;0.70;0.50;;;15.80;67.00;;;;;;5095934;28;20057;-72
2022/05/11 03:29:56;;;;;;;0.70;0.57;;;15.80;67.00;;;;;;5114262;28;20043;-73
2022/05/11 03:35:08;;;;;;;0.60;0.60;;;15.80;67.00;;;;;;5098653;28;20036;-72
2022/05/11 03:37:34;;;;;;;0.75;0.70;;;15.80;67.10;;;;;;5113713;28;20049;-72
2022/05/11 03:40:01;;;;;;;0.68;0.55;;;15.80;67.10;;;;;;5078671;28;20134;-72
2022/05/11 03:42:31;;;;;;;0.50;0.50;;;15.70;67.10;;;;;;5095729;28;20032;-72
2022/05/11 03:45:07;;;;;;;0.95;0.60;;;15.70;67.20;;;;;;5095491;28;20131;-73
2022/05/11 03:47:32;;;;;;;0.60;0.60;;;15.70;67.20;;;;;;5079136;28;20040;-73
2022/05/11 03:49:58;;;;;;;0.50;0.50;;;15.70;67.20;;;;;;5113566;28;20073;-72
2022/05/11 03:52:24;;;;;;;1.00;0.50;;;15.70;67.20;;;;;;5113906;28;20579;-72
2022/05/11 03:54:50;;;;;;;0.50;0.50;;;15.70;67.20;;;;;;5114096;28;20465;-72
2022/05/11 03:57:15;;;;;;;0.70;0.70;;;15.70;67.20;;;;;;5114187;28;20051;-72
2022/05/11 03:59:41;;;;;;;0.68;0.60;;;15.70;67.30;;;;;;5095654;28;20035;-72
2022/05/11 04:02:07;;;;;;;0.60;0.60;;;15.80;67.40;;;;;;5095982;28;20127;-72
2022/05/11 04:04:33;;;;;;;0.30;0.30;;;15.70;68.00;;;;;;5114135;28;20028;-72
2022/05/11 04:06:58;;;;;;;1.23;0.50;;;15.70;67.30;;;;;;5095589;28;20366;-72
2022/05/11 04:09:24;;;;;;;0.50;0.50;;;15.70;67.30;;;;;;5095249;28;20048;-72
2022/05/11 04:11:50;;;;;;;0.93;0.60;;;15.70;67.30;;;;;;5113865;28;20040;-72
2022/05/11 04:14:16;;;;;;;0.60;0.60;;;15.70;67.30;;;;;;5113932;28;20052;-73
2022/05/11 04:16:41;;;;;;;0.60;0.60;;;15.70;67.20;;;;;;5095175;28;20404;-72
2022/05/11 04:19:07;;;;;;;0.57;0.52;;;15.70;67.20;;;;;;5113328;28;20039;-72
2022/05/11 04:21:33;;;;;;;0.73;0.50;;;15.70;67.20;;;;;;5113374;28;20095;-73
2022/05/11 04:23:59;;;;;;;0.93;0.50;;;15.80;67.20;;;;;;5113486;28;20032;-72
2022/05/11 04:26:25;;;;;;;1.70;0.50;;;15.80;67.20;;;;;;5113693;28;20046;-73
2022/05/11 04:28:51;;;;;;;0.98;0.60;;;15.70;67.20;;;;;;5113693;28;20047;-72
2022/05/11 04:31:17;;;;;;;0.47;0.40;;;15.80;67.10;;;;;;5113513;28;20050;-72
2022/05/11 04:33:43;;;;;;;1.02;0.60;;;15.80;67.10;;;;;;5113766;28;20036;-72
2022/05/11 04:36:09;;;;;;;0.65;0.50;;;15.80;67.00;;;;;;5095718;28;20477;-73
2022/05/11 04:38:34;;;;;;;0.55;0.47;;;15.80;67.00;;;;;;5113097;28;20528;-72
2022/05/11 04:41:01;;;;;;;0.63;0.60;;;15.80;67.00;;;;;;5113303;28;20390;-72
2022/05/11 04:43:27;;;;;;;0.95;0.60;;;15.90;67.00;;;;;;5113339;28;20034;-72
2022/05/11 04:45:55;;;;;;;0.60;0.40;;;15.90;67.00;;;;;;5113089;28;20504;-72
2022/05/11 04:48:20;;;;;;;0.80;0.32;;;15.80;66.90;;;;;;5113129;28;20622;-72
2022/05/11 04:50:46;;;;;;;0.60;0.50;;;15.90;67.00;;;;;;5113286;28;20059;-72
2022/05/11 04:53:15;;;;;;;0.52;0.52;;;15.90;67.00;;;;;;5094827;28;20111;-72
2022/05/11 04:55:41;;;;;;;0.52;0.40;;;15.90;67.00;;;;;;5113534;28;20035;-72
2022/05/11 04:58:07;;;;;;;0.50;0.50;;;15.90;67.00;;;;;;5113020;28;20047;-73
2022/05/11 05:00:34;;;;;;;0.50;0.50;;;15.90;66.90;;;;;;5113213;28;20043;-72
2022/05/11 05:03:04;;;;;;;0.38;0.38;;;15.90;66.90;;;;;;5093115;28;20070;-72
2022/05/11 05:05:31;;;;;;;0.28;0.28;;;15.90;66.90;;;;;;5113023;28;20042;-73
2022/05/11 05:07:56;;;;;;;0.57;0.43;;;15.90;66.90;;;;;;5113070;28;20129;-72
2022/05/11 05:10:22;;;;;;;0.50;0.50;;;15.90;66.90;;;;;;5113232;28;20488;-74
2022/05/11 05:12:48;;;;;;;0.40;0.40;;;15.90;66.90;;;;;;5077755;28;20047;-74
2022/05/11 05:15:16;;;;;;;0.47;0.47;;;16.00;67.00;;;;;;5094940;28;20035;-74
2022/05/11 05:17:42;;;;;;;0.40;0.35;;;16.00;67.00;;;;;;5077940;28;20397;-74
2022/05/11 05:20:09;;;;;;;0.82;0.55;;;16.00;67.00;;;;;;5112979;28;20043;-74
2022/05/11 05:22:36;;;;;;;0.32;0.32;;;16.00;67.00;;;;;;5113389;28;20047;-74
2022/05/11 05:25:03;;;;;;;0.52;0.50;;;16.10;67.00;;;;;;5112798;28;20043;-74
2022/05/11 05:27:29;;;;;;;0.43;0.43;;;16.10;67.00;;;;;;5113186;28;20043;-74
2022/05/11 05:32:43;;;;;;;0.50;0.47;;;16.00;67.00;;;;;;5098633;28;20036;-74
2022/05/11 05:35:11;;;;;;;0.32;0.32;;;16.10;67.00;;;;;;5116734;28;20044;-74
2022/05/11 05:37:38;;;;;;;0.40;0.40;;;16.10;67.00;;;;;;5098557;28;20130;-74
2022/05/11 05:40:05;;;;;;;0.73;0.50;;;16.10;67.00;;;;;;5097791;28;20040;-74
2022/05/11 05:42:31;;;;;;;0.40;0.30;;;16.20;67.10;;;;;;5116017;28;20032;-74
2022/05/11 05:44:57;;;;;;;0.30;0.30;;;16.20;67.10;;;;;;5097471;28;20038;-74
2022/05/11 05:47:23;;;;;;;0.50;0.40;;;16.20;67.00;;;;;;5080860;28;20070;-74
2022/05/11 05:49:49;;;;;;;0.40;0.40;;;16.30;67.00;;;;;;5116440;28;20040;-74
2022/05/11 05:52:18;;;;;;;0.40;0.40;;;16.30;67.00;;;;;;5116106;28;20135;-74
2022/05/11 05:54:45;;;;;;;0.30;0.30;;;16.30;67.00;;;;;;5097967;28;20095;-74
2022/05/11 05:57:12;;;;;;;0.50;0.50;;;16.30;66.90;;;;;;5097724;28;20088;-74
2022/05/11 05:59:37;;;;;;;0.65;0.50;;;16.40;66.90;;;;;;5116135;28;20040;-75
2022/05/11 06:02:04;;;;;;;0.50;0.50;;;16.40;66.80;;;;;;5115965;28;20039;-71
2022/05/11 06:04:29;;;;;;;0.47;0.47;;;16.40;66.80;;;;;;5080616;28;20040;-74
2022/05/11 06:06:55;;;;;;;1.60;0.60;;;16.40;66.70;;;;;;5116158;28;20043;-74
2022/05/11 06:09:21;;;;;;;1.88;0.70;;;16.50;66.70;;;;;;5097276;28;20039;-74
2022/05/11 06:11:47;;;;;;;0.98;0.60;;;16.50;66.60;;;;;;5115886;28;20054;-75
2022/05/11 06:14:12;;;;;;;0.95;0.65;;;16.60;66.50;;;;;;5080431;28;20049;-74
2022/05/11 06:16:38;;;;;;;0.57;0.57;;;16.70;66.40;;;;;;5115929;28;20035;-73
2022/05/11 06:19:05;;;;;;;0.50;0.50;;;16.70;66.30;;;;;;5115857;28;20485;-72
2022/05/11 06:21:31;;;;;;;0.77;0.55;;;16.70;66.20;;;;;;5115637;28;20066;-71
2022/05/11 06:23:57;;;;;;;1.33;0.60;;;16.80;66.20;;;;;;5115393;28;20067;-72
2022/05/11 06:26:22;;;;;;;1.08;0.50;;;16.70;66.10;;;;;;5097140;28;20101;-73
2022/05/11 06:28:48;;;;;;;1.13;0.70;;;16.70;66.10;;;;;;5115289;28;20051;-71
2022/05/11 06:31:14;;;;;;;0.93;0.60;;;16.70;66.00;;;;;;5115552;28;20032;-73
2022/05/11 06:33:41;;;;;;;0.68;0.57;;;16.70;66.00;;;;;;5080055;28;20036;-72
2022/05/11 06:36:08;;;;;;;0.60;0.60;;;16.80;65.90;;;;;;5115457;28;20038;-73
2022/05/11 06:38:35;;;;;;;0.73;0.50;;;16.80;65.80;;;;;;5056046;28;20029;-72
2022/05/11 06:41:10;;;;;;;0.98;0.60;;;16.90;65.70;;;;;;5071232;28;20037;-73
2022/05/11 06:43:36;;;;;;;0.63;0.40;;;17.00;65.50;;;;;;5071955;28;20036;-73
2022/05/11 06:46:02;;;;;;;0.50;0.50;;;17.10;65.40;;;;;;5055616;28;20487;-72
2022/05/11 06:48:27;;;;;;;0.50;0.50;;;17.00;65.10;;;;;;5072513;28;20040;-69
2022/05/11 06:50:53;;;;;;;1.15;0.60;;;17.10;65.00;;;;;;5055400;28;20423;-69
2022/05/11 06:53:19;;;;;;;0.85;0.57;;;17.20;64.90;;;;;;5055700;28;20045;-73
2022/05/11 07:01:16;;;;;;;2.10;0.50;;;17.40;64.20;;;;;;5072149;28;20086;-73
2022/05/11 07:03:42;;;;;;;1.00;0.50;;;17.50;64.10;;;;;;5055139;28;20052;-73
2022/05/11 07:06:08;;;;;;;0.98;0.40;;;17.40;63.90;;;;;;5072082;28;20036;-72
2022/05/11 07:08:36;;;;;;;1.13;0.50;;;17.50;63.80;;;;;;5042843;28;20048;-73
2022/05/11 07:13:39;;;;;;;1.25;0.50;;;17.70;63.50;;;;;;5114448;28;20039;-72
2022/05/11 07:16:05;;;;;;;1.08;0.60;;;17.80;63.30;;;;;;5114077;28;20512;-73
2022/05/11 07:18:30;;;;;;;1.23;0.52;;;17.80;63.10;;;;;;5114539;28;20027;-71
2022/05/11 07:20:56;;;;;;;0.93;0.52;;;17.90;62.90;;;;;;5114508;28;20048;-74
2022/05/11 07:23:24;;;;;;;1.00;0.40;;;18.00;62.50;;;;;;5062970;28;20115;-72
2022/05/11 07:25:50;;;;;;;0.63;0.50;;;18.10;62.30;;;;;;5114566;28;20047;-73
2022/05/11 07:28:16;;;;;;;1.55;0.65;;;18.20;62.00;;;;;;5096953;28;20088;-73
2022/05/11 07:30:46;;;;;;;1.85;0.60;;;18.20;61.70;;;;;;5114571;28;20122;-72
2022/05/11 07:33:12;;;;;;;0.85;0.52;;;18.20;61.70;;;;;;5096870;28;20040;-73
2022/05/11 07:35:38;;;;;;;1.63;0.73;;;18.20;61.90;;;;;;5114428;28;20398;-72
2022/05/11 07:38:09;;;;;;;1.15;0.70;;;18.20;61.80;;;;;;5095630;28;20048;-69
2022/05/11 07:40:34;;;;;;;1.35;0.65;;;18.10;61.70;;;;;;5114065;28;20036;-71
2022/05/11 07:43:01;;;;;;;1.02;0.70;;;18.10;61.90;;;;;;5114642;28;21183;-71
2022/05/11 07:45:27;;;;;;;0.60;0.43;;;18.10;62.00;;;;;;5095596;28;20078;-72
2022/05/11 07:47:53;;;;;;;1.13;0.63;;;18.20;61.90;;;;;;5114222;28;20067;-73
2022/05/11 07:50:18;;;;;;;1.52;0.70;;;18.30;61.80;;;;;;5113868;28;20063;-73
2022/05/11 07:52:46;;;;;;;0.77;0.35;;;18.20;61.60;;;;;;5114083;28;20578;-72
2022/05/11 07:55:13;;;;;;;1.88;0.55;;;18.30;61.60;;;;;;5113834;28;20153;-69
2022/05/11 08:00:25;;;;;;;1.23;0.50;;;18.30;61.60;;;;;;5113932;28;20105;-70
2022/05/11 08:02:51;;;;;;;0.63;0.40;;;18.30;62.20;;;;;;5113925;28;20088;-72
2022/05/11 08:05:18;;;;;;;0.63;0.47;;;18.40;61.50;;;;;;5113686;28;20089;-72
2022/05/11 08:07:47;;;;;;;0.70;0.45;;;18.40;61.50;;;;;;5113896;28;20039;-70
2022/05/11 08:10:17;;;;;;;0.50;0.40;;;18.30;61.50;;;;;;5095976;28;20048;-71
2022/05/11 08:12:42;;;;;;;2.83;0.52;;;18.40;61.50;;;;;;5095716;28;20039;-72
2022/05/11 08:15:09;;;;;;;0.47;0.30;;;18.40;61.20;;;;;;5113812;28;20044;-72
2022/05/11 08:17:37;;;;;;;0.35;0.30;;;18.50;61.10;;;;;;5095308;28;20400;-71
2022/05/11 08:20:08;;;;;;;0.20;0.20;;;18.60;61.00;;;;;;5113473;28;20043;-71
2022/05/11 08:22:34;;;;;;;2.53;0.50;;;18.60;60.70;;;;;;5095146;28;20039;-71
2022/05/11 08:24:59;;;;;;;2.42;0.65;;;18.70;60.60;;;;;;5113358;28;20042;-71
2022/05/11 08:27:28;;;;;;;0.52;0.30;;;18.70;60.60;;;;;;5113883;28;20177;-71
2022/05/11 08:35:29;;;;;;;1.00;0.43;;;18.90;60.30;;;;;;5083788;28;20128;-71
2022/05/11 08:37:56;;;;;;;1.50;0.57;;;18.90;60.30;;;;;;5077871;28;20069;-72
2022/05/11 08:40:37;;;;;;;1.27;0.38;;;19.00;60.30;;;;;;5061355;28;20072;-70
2022/05/11 08:43:06;;;;;;;1.27;0.40;;;19.20;60.00;;;;;;5079464;28;20043;-70
2022/05/11 08:45:40;;;;;;;0.80;0.47;;;19.30;59.70;;;;;;5095267;28;20051;-72
2022/05/11 08:48:16;;;;;;;0.50;0.30;;;19.50;59.50;;;;;;5113742;28;20493;-72
2022/05/11 08:50:43;;;;;;;0.75;0.60;;;19.60;59.20;;;;;;5113130;28;20031;-72
2022/05/11 08:53:33;;;;;;;1.80;0.43;;;19.70;59.10;;;;;;5113239;28;20040;-71
2022/05/11 08:56:04;;;;;;;1.65;0.65;;;19.50;59.10;;;;;;5113616;28;20039;-71
2022/05/11 08:58:37;;;;;;;1.55;0.50;;;19.50;59.30;;;;;;5111277;28;20485;-71
2022/05/11 09:01:07;;;;;;;1.55;0.60;;;19.60;59.00;;;;;;5093374;28;20485;-71
2022/05/11 09:03:41;;;;;;;0.70;0.50;;;19.50;59.00;;;;;;5078255;28;20092;-72
2022/05/11 09:06:16;;;;;;;2.40;0.68;;;19.50;59.30;;;;;;5093511;28;20040;-72
2022/05/11 09:08:42;;;;;;;1.10;0.60;;;19.50;59.20;;;;;;5112128;28;20063;-72
2022/05/11 09:11:14;;;;;;;1.58;0.50;;;19.70;59.00;;;;;;5112847;28;20102;-72
2022/05/11 09:13:42;;;;;;;1.77;0.70;;;19.80;58.90;;;;;;5112598;28;20703;-71
2022/05/11 09:16:21;;;;;;;0.63;0.50;;;19.80;58.60;;;;;;5113250;28;20063;-71
2022/05/11 09:18:47;;;;;;;2.28;0.57;;;20.00;58.50;;;;;;5111086;28;20071;-72
2022/05/11 09:21:32;;;;;;;1.00;0.40;;;20.20;58.40;;;;;;5113299;28;20063;-72
2022/05/11 09:24:08;;;;;;;0.90;0.40;;;20.30;58.20;;;;;;5112624;28;20039;-72
2022/05/11 09:26:38;;;;;;;2.40;0.55;;;20.30;58.10;;;;;;5077743;28;20443;-73
2022/05/11 09:29:25;;;;;;;0.40;0.38;;;20.50;58.00;;;;;;5113080;28;20059;-72
2022/05/11 09:31:52;;;;;;;0.75;0.50;;;20.60;58.00;;;;;;5093026;28;20066;-72
2022/05/11 09:34:36;;;;;;;0.63;0.38;;;20.60;58.00;;;;;;5092241;28;20031;-72
2022/05/11 09:37:22;;;;;;;0.88;0.45;;;20.60;58.00;;;;;;5112539;28;20040;-72
2022/05/11 09:40:06;;;;;;;1.20;0.63;;;20.80;57.80;;;;;;5110107;28;20092;-72
2022/05/11 09:42:32;;;;;;;0.63;0.43;;;20.80;57.70;;;;;;5112252;28;20040;-72
2022/05/11 09:45:01;;;;;;;0.43;0.40;;;20.90;57.70;;;;;;5112355;28;20043;-71
2022/05/11 09:47:33;;;;;;;0.40;0.40;;;20.90;57.60;;;;;;5094307;28;20493;-71
2022/05/11 09:50:20;;;;;;;2.40;0.50;;;21.10;57.60;;;;;;5112357;28;20047;-71
2022/05/11 09:52:46;;;;;;;0.63;0.40;;;21.30;57.40;;;;;;5093973;28;20036;-71
2022/05/11 09:55:23;;;;;;;0.50;0.50;;;21.30;57.30;;;;;;5112516;28;20032;-71
2022/05/11 09:57:57;;;;;;;1.05;0.50;;;21.40;57.20;;;;;;5112585;28;20465;-72
2022/05/11 10:00:35;;;;;;;0.75;0.60;;;21.40;57.20;;;;;;5094692;28;20040;-71
2022/05/11 10:03:06;;;;;;;0.98;0.70;;;21.40;57.20;;;;;;5093547;28;20040;-72
2022/05/11 10:05:44;;;;;;;0.50;0.50;;;21.50;57.30;;;;;;5112570;28;20027;-72
2022/05/11 10:08:30;;;;;;;1.02;0.60;;;21.50;57.20;;;;;;5110687;28;20085;-72
2022/05/11 10:11:12;;;;;;;1.30;0.85;;;21.60;57.80;;;;;;5111180;28;20044;-72
2022/05/11 10:13:46;;;;;;;0.80;0.60;;;21.70;57.10;;;;;;5112578;28;20050;-72
2022/05/11 10:21:58;;;;;;;1.08;0.70;;;21.80;56.80;;;;;;5114477;28;20145;-72
2022/05/11 10:24:49;;;;;;;1.02;0.70;;;21.80;56.80;;;;;;5115488;28;20043;-72
2022/05/11 10:27:29;;;;;;;1.02;0.70;;;21.80;56.80;;;;;;5115156;28;20063;-72
2022/05/11 10:30:08;;;;;;;1.47;0.70;;;21.80;56.80;;;;;;5113528;28;20043;-71
2022/05/11 10:33:13;;;;;;;1.58;0.77;;;21.90;56.80;;;;;;5115094;28;20126;-72
2022/05/11 10:36:00;;;;;;;1.10;0.60;;;21.90;56.50;;;;;;5100663;28;20071;-71
2022/05/11 10:38:54;;;;;;;0.73;0.60;;;22.00;56.50;;;;;;5098871;28;20096;-70
2022/05/11 10:41:41;;;;;;;1.88;0.88;;;22.10;56.20;;;;;;5099375;28;20489;-70
2022/05/11 10:44:36;;;;;;;0.47;0.47;;;22.20;56.00;;;;;;5098743;28;20039;-71
2022/05/11 10:47:28;;;;;;;0.60;0.60;;;22.20;55.90;;;;;;5095533;28;20510;-70
2022/05/11 10:50:14;;;;;;;0.35;0.35;;;22.40;55.70;;;;;;5113041;28;20043;-71
2022/05/11 10:53:03;;;;;;;1.45;0.55;;;22.40;55.40;;;;;;5115046;28;20169;-70
2022/05/11 10:56:03;;;;;;;1.17;0.50;;;22.40;55.50;;;;;;5114775;28;20031;-71
2022/05/11 10:58:54;;;;;;;0.70;0.40;;;22.50;55.40;;;;;;5114771;28;20032;-70
2022/05/11 11:01:22;;;;;;;0.32;0.30;;;22.50;55.30;;;;;;5113904;28;20519;-71
2022/05/11 11:04:24;;;;;;;0.30;0.30;;;22.50;55.20;;;;;;5114814;28;20040;-70
2022/05/11 11:07:11;;;;;;;0.45;0.45;;;22.60;55.30;;;;;;5115070;28;20040;-71
2022/05/11 11:10:03;;;;;;;1.30;0.50;;;22.60;55.30;;;;;;5096359;28;20047;-70
2022/05/11 11:13:02;;;;;;;1.40;0.50;;;22.60;55.10;;;;;;5112412;28;20055;-70
2022/05/11 11:15:32;;;;;;;0.35;0.32;;;22.70;55.10;;;;;;5114762;28;20039;-69
2022/05/11 11:17:59;;;;;;;0.40;0.40;;;22.70;55.10;;;;;;5114975;28;20509;-71
2022/05/11 11:20:35;;;;;;;0.32;0.30;;;22.70;55.00;;;;;;5114603;28;20044;-70
2022/05/11 11:23:12;;;;;;;0.40;0.40;;;22.70;54.90;;;;;;5114523;28;20057;-71
2022/05/11 11:25:58;;;;;;;0.45;0.30;;;22.60;54.90;;;;;;5096068;28;20043;-71
2022/05/11 11:28:27;;;;;;;1.77;0.70;;;22.70;54.80;;;;;;5095490;28;20039;-70
2022/05/11 11:31:15;;;;;;;2.35;0.50;;;22.70;54.70;;;;;;5112898;28;20174;-71
2022/05/11 11:34:15;;;;;;;0.98;0.43;;;22.80;54.60;;;;;;5099422;28;20032;-72
2022/05/11 11:36:41;;;;;;;;;;;22.80;54.50;;;;;;5115192;28;20031;-71
2022/05/11 11:39:10;;;;;;;0.85;0.40;;;22.90;54.50;;;;;;5096098;28;20265;-71
2022/05/11 11:42:00;;;;;;;1.75;0.70;;;22.90;54.40;;;;;;5079128;28;20035;-70
2022/05/11 11:44:35;;;;;;;0.40;0.30;;;22.80;54.20;;;;;;5082306;28;20048;-70
2022/05/11 11:47:00;;;;;;;0.50;0.40;;;22.90;54.30;;;;;;5063488;28;20265;-72
2022/05/11 11:49:42;;;;;;;0.60;0.50;;;23.00;54.20;;;;;;5114176;28;20154;-72
2022/05/11 11:52:09;;;;;;;1.35;0.43;;;23.00;54.00;;;;;;5113452;28;20039;-70
2022/05/11 11:54:48;;;;;;;0.73;0.35;;;23.10;53.90;;;;;;5096328;28;20031;-71
2022/05/11 11:57:31;;;;;;;0.68;0.50;;;23.10;53.80;;;;;;5096310;28;20039;-69
2022/05/11 11:59:59;;;;;;;0.63;0.40;;;23.10;54.20;;;;;;5114183;28;20055;-70
2022/05/11 12:02:40;;;;;;;0.43;0.43;;;23.10;53.70;;;;;;5079410;28;20070;-71
2022/05/11 12:05:10;;;;;;;0.40;0.40;;;23.20;53.70;;;;;;5113902;28;20036;-70
2022/05/11 12:15:43;;;;;;;1.25;0.40;;;23.00;53.80;;;;;;5113826;28;20059;-72
2022/05/11 12:18:29;;;;;;;2.17;0.50;;;23.00;53.90;;;;;;5095684;28;20039;-71
2022/05/11 12:20:56;;;;;;;0.85;0.55;;;23.00;53.90;;;;;;5112470;28;20558;-72
2022/05/11 12:23:26;;;;;;;1.38;0.60;;;23.00;53.60;;;;;;5114064;28;20112;-72
2022/05/11 12:25:58;;;;;;;1.20;0.50;;;23.00;53.60;;;;;;5112236;28;20067;-70
2022/05/11 12:28:30;;;;;;;0.55;0.55;;;22.90;53.60;;;;;;5113574;28;20118;-72
2022/05/11 12:30:56;;;;;;;1.05;0.60;;;22.90;53.60;;;;;;5113882;28;20036;-71
2022/05/11 12:33:28;;;;;;;0.82;0.50;;;23.00;53.70;;;;;;5113465;28;20122;-70
2022/05/11 12:35:54;;;;;;;0.50;0.50;;;22.90;53.50;;;;;;5093491;28;20046;-70
2022/05/11 12:38:57;;;;;;;0.82;0.55;;;23.00;53.60;;;;;;5113181;28;20104;-71
2022/05/11 12:41:23;;;;;;;0.30;0.30;;;23.00;53.30;;;;;;5111025;28;20069;-70
2022/05/11 12:43:57;;;;;;;0.40;0.40;;;23.00;53.40;;;;;;5094917;28;20442;-73
2022/05/11 12:46:24;;;;;;;0.70;0.50;;;23.00;53.50;;;;;;5113451;28;20047;-70
2022/05/11 12:49:04;;;;;;;0.63;0.50;;;23.00;53.50;;;;;;5113227;28;20051;-71
2022/05/11 12:51:34;;;;;;;;;;;22.90;53.30;;;;;;5113443;28;20035;-71
2022/05/11 12:54:06;;;;;;;2.10;0.70;;;23.00;53.50;;;;;;5113085;28;19912;-70
2022/05/11 12:56:35;;;;;;;0.95;0.60;;;23.00;54.10;;;;;;5112942;28;20140;-70
2022/05/11 12:59:04;;;;;;;0.35;0.35;;;23.00;53.50;;;;;;5113511;28;20031;-71
2022/05/11 13:01:33;;;;;;;0.90;0.60;;;22.90;53.40;;;;;;5112783;28;20547;-71
2022/05/11 13:04:14;;;;;;;1.05;0.60;;;23.00;53.50;;;;;;5095069;28;20046;-71
2022/05/11 13:06:41;;;;;;;;;;;23.10;53.20;;;;;;5076358;28;20034;-70
2022/05/11 13:09:16;;;;;;;1.45;0.70;;;23.10;53.30;;;;;;5113095;28;20311;-70
2022/05/11 13:11:42;;;;;;;0.63;0.40;;;23.10;53.10;;;;;;5111091;28;20066;-70
2022/05/11 13:14:17;;;;;;;1.17;0.70;;;23.00;53.10;;;;;;5112546;28;20035;-69
2022/05/11 13:16:47;;;;;;;0.88;0.60;;;23.10;53.00;;;;;;5112523;28;20042;-69
2022/05/11 13:19:24;;;;;;;1.50;0.70;;;23.00;53.00;;;;;;5094443;28;20032;-68
2022/05/11 13:21:51;;;;;;;1.25;0.60;;;23.00;53.10;;;;;;5094361;28;20139;-69
2022/05/11 13:24:41;;;;;;;1.00;0.70;;;23.00;53.30;;;;;;5112457;28;20036;-70
2022/05/11 13:27:37;;;;;;;2.58;0.98;;;23.00;53.10;;;;;;5112125;28;20127;-70
2022/05/11 13:30:10;;;;;;;1.70;0.70;;;23.00;52.70;;;;;;5111864;28;20089;-70
2022/05/11 13:32:38;;;;;;;1.85;0.90;;;23.10;52.80;;;;;;5094137;28;20489;-69
2022/05/11 13:35:19;;;;;;;1.35;0.70;;;23.20;52.70;;;;;;5094280;28;20100;-70
2022/05/11 13:38:16;;;;;;;0.70;0.60;;;23.00;52.40;;;;;;5110659;28;20101;-69
2022/05/11 13:41:00;;;;;;;0.93;0.60;;;23.10;52.70;;;;;;5112701;28;20044;-70
2022/05/11 13:43:32;;;;;;;1.58;0.82;;;23.10;52.60;;;;;;5093871;28;20039;-70
2022/05/11 13:46:02;;;;;;;0.98;0.60;;;23.10;52.50;;;;;;5110591;28;20035;-69
2022/05/11 13:48:41;;;;;;;2.22;0.60;;;23.10;52.60;;;;;;5110596;28;20047;-70